MTPPMROC

Guest
Details From MTPP - Toussaint Louverture Intl
To MROC - San Jose Juan Santamaria Intl
Flight Number -
Tags Generated
Created
Modified
Stats Distance 865 nm / 1,601 km
Max Altitude 0 ft / 0 m
Waypoints 6
Social Downloads 0
Likes 0
Share VATSIM

Download

Looking for another format? Having issues loading an existing format? Contact us
Advertisement - Login to hide

Notes

Generated

Route

MTPP LONET NEMIL ARSUR R1514 MROC

ID Type Via Altitude Latitude Longitude Leg Dist Tot Dist Heading (true) Name
O MTPP APT - 0 ft / 0 m 18.57933˚ -72.30692˚ - 0 nm - -
LONET FIX - 0 ft / 0 m 13.38556˚ -79.31250˚ 510 nm 510 nm 233° / 231° -
NEMIL FIX - 0 ft / 0 m 12.34639˚ -81.06722˚ 120 nm 630 nm 239° / 239° -
ARSUR FIX - 0 ft / 0 m 11.53444˚ -82.23667˚ 84 nm 715 nm 235° / 235° -
R1514 FIX - 0 ft / 0 m 9.98900˚ -84.22186˚ 149 nm 864 nm 232° / 231° -
O MROC APT - 0 ft / 0 m 9.98900˚ -84.22186˚ 0 nm 864 nm 0° / 180° -

Altitude Profile

Advertisement - Login to hide

Weather


0- 5 10 15 20 25 30 35+ Temperature / ° C

Clouds and Precipitation
Forecast for 2017-12-18 12:00 UTC. Updated 2 hours ago

Ground ~20,000 ft ~40,000 ft Winds

MTPP

Details ICAO MTPP (PAP)
Name TOUSSAINT LOUVERTURE INTL
Region Haiti
Timezone America/Port-au-Prince (UTC-5.0)
Stats Elevation 122 ft / 37 m (AMSL)
Location 18.580051° -72.292540°
Runways 1
Magnetic Variation 10.193° W

METAR

MTPP 181100Z 15006KT 9000 FEW018 22/17 Q1016 A3001

Decode

TAF

Not found

Departure Runways

ID Width Length Bearing (true) Bearing (mag) Surface Threshold Offset Overrun Length
10 141 ft / 43 m 9,963 ft / 3,037 m 86.96° 97.15° Asphalt 0 ft / 0 m 0 ft / 0 m
28 141 ft / 43 m 9,963 ft / 3,037 m 266.97° 277.16° Asphalt 0 ft / 0 m 0 ft / 0 m

MROC

Details ICAO MROC (SJO)
Name San Jose Juan Santamaria Intl
Region Costa Rica
Timezone America/Costa_Rica (UTC-6.0)
Stats Elevation 3,021 ft / 921 m (AMSL)
Location 9.993927° -84.208884°
Runways 1
Magnetic Variation 1.720° W

METAR

MROC 181100Z 10012KT CAVOK 21/16 A2996 NOSIG

Decode

TAF

TAF MROC 172300Z 1800/1824 09012KT 9999 FEW035 TX30/1818Z TN20/1810Z TEMPO 1800/1824 07018G28KT

Decode

Destination Runways

ID Width Length Bearing (true) Bearing (mag) Surface Threshold Offset Overrun Length
07 151 ft / 46 m 9,994 ft / 3,046 m 68.91° 70.63° Asphalt 0 ft / 0 m 200 ft / 61 m
25 151 ft / 46 m 9,994 ft / 3,046 m 248.92° 250.64° Asphalt 1,969 ft / 600 m 200 ft / 61 m

Approach Navaids

Runway Type Ident Frequency Range Bearing (true) Bearing (mag) Slope Elevation
07 Localiser IOCO 109.50 MHz 18 nm / 33 km 68.89° 70.61° - 930 ft / 283 m (AMSL)
07 Glidescope IOCO 109.50 MHz 10 nm / 19 km 68.91° 70.63° 3.00° 930 ft / 283 m (AMSL)
07 DME IOCO 109.50 MHz 18 nm / 33 km - - - 930 ft / 283 m (AMSL)